sensor_id;sensor_type;location;lat;lon;timestamp;P1;durP1;ratioP1;P2;durP2;ratioP2
51602;SDS011;37954;51.980;5.850;2024-01-06T00:01:51;12.17;;;9.03;;
51602;SDS011;37954;51.980;5.850;2024-01-06T00:06:03;13.17;;;9.73;;
51602;SDS011;37954;51.980;5.850;2024-01-06T00:10:15;14.20;;;9.40;;
51602;SDS011;37954;51.980;5.850;2024-01-06T00:14:28;11.93;;;8.90;;
51602;SDS011;37954;51.980;5.850;2024-01-06T00:18:39;11.80;;;8.90;;
51602;SDS011;37954;51.980;5.850;2024-01-06T00:22:51;12.73;;;8.97;;
51602;SDS011;37954;51.980;5.850;2024-01-06T00:27:03;14.43;;;9.63;;
51602;SDS011;37954;51.980;5.850;2024-01-06T00:31:15;13.10;;;9.30;;
51602;SDS011;37954;51.980;5.850;2024-01-06T00:35:28;13.43;;;9.23;;
51602;SDS011;37954;51.980;5.850;2024-01-06T00:39:40;13.13;;;8.87;;
51602;SDS011;37954;51.980;5.850;2024-01-06T00:43:51;11.17;;;8.47;;
51602;SDS011;37954;51.980;5.850;2024-01-06T00:48:03;11.43;;;8.53;;
51602;SDS011;37954;51.980;5.850;2024-01-06T00:52:15;11.93;;;8.30;;
51602;SDS011;37954;51.980;5.850;2024-01-06T00:56:27;11.57;;;9.20;;
51602;SDS011;37954;51.980;5.850;2024-01-06T01:00:38;11.83;;;8.60;;
51602;SDS011;37954;51.980;5.850;2024-01-06T01:04:50;11.80;;;8.57;;
51602;SDS011;37954;51.980;5.850;2024-01-06T01:09:04;11.73;;;9.13;;
51602;SDS011;37954;51.980;5.850;2024-01-06T01:13:15;11.33;;;8.70;;
51602;SDS011;37954;51.980;5.850;2024-01-06T01:17:27;13.30;;;8.47;;
51602;SDS011;37954;51.980;5.850;2024-01-06T01:21:38;11.00;;;8.67;;
51602;SDS011;37954;51.980;5.850;2024-01-06T01:25:50;11.23;;;8.80;;
51602;SDS011;37954;51.980;5.850;2024-01-06T01:30:02;11.23;;;8.47;;
51602;SDS011;37954;51.980;5.850;2024-01-06T01:34:14;11.27;;;8.40;;
51602;SDS011;37954;51.980;5.850;2024-01-06T01:38:25;11.40;;;8.73;;
51602;SDS011;37954;51.980;5.850;2024-01-06T01:42:37;13.03;;;9.73;;
51602;SDS011;37954;51.980;5.850;2024-01-06T01:46:49;11.90;;;8.70;;
51602;SDS011;37954;51.980;5.850;2024-01-06T01:51:00;12.03;;;9.03;;
51602;SDS011;37954;51.980;5.850;2024-01-06T01:55:12;12.03;;;8.43;;
51602;SDS011;37954;51.980;5.850;2024-01-06T01:59:24;14.73;;;10.00;;
51602;SDS011;37954;51.980;5.850;2024-01-06T02:03:36;16.17;;;10.57;;
51602;SDS011;37954;51.980;5.850;2024-01-06T02:07:48;13.70;;;8.73;;
51602;SDS011;37954;51.980;5.850;2024-01-06T02:12:16;14.07;;;10.33;;
51602;SDS011;37954;51.980;5.850;2024-01-06T02:16:28;15.90;;;10.90;;
51602;SDS011;37954;51.980;5.850;2024-01-06T02:20:40;16.20;;;10.77;;
51602;SDS011;37954;51.980;5.850;2024-01-06T02:24:54;15.43;;;11.13;;
51602;SDS011;37954;51.980;5.850;2024-01-06T02:29:06;16.33;;;11.17;;
51602;SDS011;37954;51.980;5.850;2024-01-06T02:33:18;15.03;;;11.10;;
51602;SDS011;37954;51.980;5.850;2024-01-06T02:37:30;16.30;;;11.47;;
51602;SDS011;37954;51.980;5.850;2024-01-06T02:41:42;15.33;;;10.63;;
51602;SDS011;37954;51.980;5.850;2024-01-06T02:45:53;17.93;;;12.23;;
51602;SDS011;37954;51.980;5.850;2024-01-06T02:50:05;19.00;;;11.90;;
51602;SDS011;37954;51.980;5.850;2024-01-06T02:54:17;17.10;;;11.73;;
51602;SDS011;37954;51.980;5.850;2024-01-06T02:58:29;17.27;;;11.93;;
51602;SDS011;37954;51.980;5.850;2024-01-06T03:02:40;17.23;;;11.83;;
51602;SDS011;37954;51.980;5.850;2024-01-06T03:06:54;19.70;;;13.80;;
51602;SDS011;37954;51.980;5.850;2024-01-06T03:11:05;20.60;;;12.97;;
51602;SDS011;37954;51.980;5.850;2024-01-06T03:15:17;20.23;;;13.77;;
51602;SDS011;37954;51.980;5.850;2024-01-06T03:19:29;16.83;;;12.47;;
51602;SDS011;37954;51.980;5.850;2024-01-06T03:23:42;17.63;;;12.77;;
51602;SDS011;37954;51.980;5.850;2024-01-06T03:27:53;18.30;;;12.20;;
51602;SDS011;37954;51.980;5.850;2024-01-06T03:32:05;19.77;;;13.47;;
51602;SDS011;37954;51.980;5.850;2024-01-06T03:36:17;21.10;;;13.10;;
51602;SDS011;37954;51.980;5.850;2024-01-06T03:40:28;17.33;;;12.20;;
51602;SDS011;37954;51.980;5.850;2024-01-06T03:44:40;18.10;;;12.80;;
51602;SDS011;37954;51.980;5.850;2024-01-06T03:48:52;17.20;;;12.23;;
51602;SDS011;37954;51.980;5.850;2024-01-06T03:53:03;19.23;;;12.97;;
51602;SDS011;37954;51.980;5.850;2024-01-06T03:57:16;19.10;;;13.23;;
51602;SDS011;37954;51.980;5.850;2024-01-06T04:01:27;17.97;;;12.83;;
51602;SDS011;37954;51.980;5.850;2024-01-06T04:05:40;22.27;;;13.97;;
51602;SDS011;37954;51.980;5.850;2024-01-06T04:09:52;21.43;;;14.17;;
51602;SDS011;37954;51.980;5.850;2024-01-06T04:14:03;23.27;;;15.53;;
51602;SDS011;37954;51.980;5.850;2024-01-06T04:18:15;20.30;;;13.77;;
51602;SDS011;37954;51.980;5.850;2024-01-06T04:22:27;23.93;;;14.87;;
51602;SDS011;37954;51.980;5.850;2024-01-06T04:26:38;21.27;;;14.40;;
51602;SDS011;37954;51.980;5.850;2024-01-06T04:30:50;23.17;;;15.23;;
51602;SDS011;37954;51.980;5.850;2024-01-06T04:35:02;22.70;;;14.97;;
51602;SDS011;37954;51.980;5.850;2024-01-06T04:39:14;22.47;;;15.97;;
51602;SDS011;37954;51.980;5.850;2024-01-06T04:43:26;23.80;;;14.63;;
51602;SDS011;37954;51.980;5.850;2024-01-06T04:47:37;20.23;;;14.50;;
51602;SDS011;37954;51.980;5.850;2024-01-06T04:51:49;21.37;;;14.70;;
51602;SDS011;37954;51.980;5.850;2024-01-06T04:56:01;21.53;;;14.27;;
51602;SDS011;37954;51.980;5.850;2024-01-06T05:00:13;20.37;;;14.00;;
51602;SDS011;37954;51.980;5.850;2024-01-06T05:04:25;17.90;;;12.97;;
51602;SDS011;37954;51.980;5.850;2024-01-06T05:08:36;16.50;;;12.50;;
51602;SDS011;37954;51.980;5.850;2024-01-06T05:12:52;15.03;;;11.27;;
51602;SDS011;37954;51.980;5.850;2024-01-06T05:17:04;15.43;;;10.77;;
51602;SDS011;37954;51.980;5.850;2024-01-06T05:21:16;15.37;;;10.13;;
51602;SDS011;37954;51.980;5.850;2024-01-06T05:25:27;14.37;;;10.83;;
51602;SDS011;37954;51.980;5.850;2024-01-06T05:29:39;13.30;;;9.87;;
51602;SDS011;37954;51.980;5.850;2024-01-06T05:33:51;13.53;;;9.43;;
51602;SDS011;37954;51.980;5.850;2024-01-06T05:38:02;15.23;;;9.60;;
51602;SDS011;37954;51.980;5.850;2024-01-06T05:42:15;12.73;;;9.60;;
51602;SDS011;37954;51.980;5.850;2024-01-06T05:46:26;14.80;;;9.63;;
51602;SDS011;37954;51.980;5.850;2024-01-06T05:50:38;13.97;;;10.17;;
51602;SDS011;37954;51.980;5.850;2024-01-06T05:54:51;15.17;;;10.33;;
51602;SDS011;37954;51.980;5.850;2024-01-06T05:59:02;17.77;;;10.23;;
51602;SDS011;37954;51.980;5.850;2024-01-06T06:03:14;13.93;;;10.23;;
51602;SDS011;37954;51.980;5.850;2024-01-06T06:07:26;16.50;;;10.97;;
51602;SDS011;37954;51.980;5.850;2024-01-06T06:11:37;14.37;;;10.57;;
51602;SDS011;37954;51.980;5.850;2024-01-06T06:15:49;13.20;;;9.03;;
51602;SDS011;37954;51.980;5.850;2024-01-06T06:20:00;16.23;;;9.90;;
51602;SDS011;37954;51.980;5.850;2024-01-06T06:24:12;13.00;;;9.40;;
51602;SDS011;37954;51.980;5.850;2024-01-06T06:28:25;13.40;;;8.90;;
51602;SDS011;37954;51.980;5.850;2024-01-06T06:32:37;12.37;;;8.67;;
51602;SDS011;37954;51.980;5.850;2024-01-06T06:36:49;12.13;;;9.97;;
51602;SDS011;37954;51.980;5.850;2024-01-06T06:41:00;11.77;;;9.30;;
51602;SDS011;37954;51.980;5.850;2024-01-06T06:45:12;13.10;;;9.40;;
51602;SDS011;37954;51.980;5.850;2024-01-06T06:49:24;13.83;;;9.13;;
51602;SDS011;37954;51.980;5.850;2024-01-06T06:53:36;14.27;;;10.40;;
51602;SDS011;37954;51.980;5.850;2024-01-06T06:57:47;12.40;;;9.73;;
51602;SDS011;37954;51.980;5.850;2024-01-06T07:01:59;11.87;;;9.10;;
51602;SDS011;37954;51.980;5.850;2024-01-06T07:06:14;12.23;;;9.03;;
51602;SDS011;37954;51.980;5.850;2024-01-06T07:10:26;12.30;;;8.90;;
51602;SDS011;37954;51.980;5.850;2024-01-06T07:14:38;11.67;;;8.50;;
51602;SDS011;37954;51.980;5.850;2024-01-06T07:18:50;10.80;;;8.27;;
51602;SDS011;37954;51.980;5.850;2024-01-06T07:23:01;12.73;;;9.03;;
51602;SDS011;37954;51.980;5.850;2024-01-06T07:27:14;13.13;;;9.13;;
51602;SDS011;37954;51.980;5.850;2024-01-06T07:31:26;11.67;;;8.77;;
51602;SDS011;37954;51.980;5.850;2024-01-06T07:35:38;9.50;;;8.33;;
51602;SDS011;37954;51.980;5.850;2024-01-06T07:39:53;9.93;;;8.37;;
51602;SDS011;37954;51.980;5.850;2024-01-06T07:44:05;12.27;;;9.43;;
51602;SDS011;37954;51.980;5.850;2024-01-06T07:48:17;13.93;;;9.23;;
51602;SDS011;37954;51.980;5.850;2024-01-06T07:52:28;11.73;;;9.67;;
51602;SDS011;37954;51.980;5.850;2024-01-06T07:56:40;10.67;;;8.17;;
51602;SDS011;37954;51.980;5.850;2024-01-06T08:00:51;11.53;;;8.97;;
51602;SDS011;37954;51.980;5.850;2024-01-06T08:05:03;12.97;;;9.00;;
51602;SDS011;37954;51.980;5.850;2024-01-06T08:09:15;10.77;;;7.83;;
51602;SDS011;37954;51.980;5.850;2024-01-06T08:13:27;12.20;;;9.03;;
51602;SDS011;37954;51.980;5.850;2024-01-06T08:17:38;12.37;;;8.97;;
51602;SDS011;37954;51.980;5.850;2024-01-06T08:21:52;14.27;;;8.83;;
51602;SDS011;37954;51.980;5.850;2024-01-06T08:26:04;12.13;;;8.33;;
51602;SDS011;37954;51.980;5.850;2024-01-06T08:30:18;14.10;;;8.47;;
51602;SDS011;37954;51.980;5.850;2024-01-06T08:34:30;11.90;;;8.43;;
51602;SDS011;37954;51.980;5.850;2024-01-06T08:38:43;11.00;;;7.97;;
51602;SDS011;37954;51.980;5.850;2024-01-06T08:42:55;12.77;;;8.47;;
51602;SDS011;37954;51.980;5.850;2024-01-06T08:47:07;14.37;;;9.10;;
51602;SDS011;37954;51.980;5.850;2024-01-06T08:51:18;14.03;;;9.57;;
51602;SDS011;37954;51.980;5.850;2024-01-06T08:55:31;14.13;;;8.90;;
51602;SDS011;37954;51.980;5.850;2024-01-06T08:59:43;14.33;;;9.63;;
51602;SDS011;37954;51.980;5.850;2024-01-06T09:03:56;17.13;;;10.23;;
51602;SDS011;37954;51.980;5.850;2024-01-06T09:08:08;13.50;;;9.60;;
51602;SDS011;37954;51.980;5.850;2024-01-06T09:12:20;13.47;;;9.77;;
51602;SDS011;37954;51.980;5.850;2024-01-06T09:16:32;14.60;;;10.00;;
51602;SDS011;37954;51.980;5.850;2024-01-06T09:20:43;13.53;;;10.50;;
51602;SDS011;37954;51.980;5.850;2024-01-06T09:24:55;15.10;;;9.50;;
51602;SDS011;37954;51.980;5.850;2024-01-06T09:29:07;15.87;;;10.80;;
51602;SDS011;37954;51.980;5.850;2024-01-06T09:33:20;14.67;;;10.40;;
51602;SDS011;37954;51.980;5.850;2024-01-06T09:37:32;14.37;;;10.30;;
51602;SDS011;37954;51.980;5.850;2024-01-06T09:41:43;13.10;;;9.87;;
51602;SDS011;37954;51.980;5.850;2024-01-06T09:46:02;13.83;;;9.93;;
51602;SDS011;37954;51.980;5.850;2024-01-06T09:50:18;14.37;;;9.83;;
51602;SDS011;37954;51.980;5.850;2024-01-06T09:54:30;13.10;;;9.50;;
51602;SDS011;37954;51.980;5.850;2024-01-06T09:58:46;15.73;;;10.40;;
51602;SDS011;37954;51.980;5.850;2024-01-06T10:02:57;12.63;;;9.17;;
51602;SDS011;37954;51.980;5.850;2024-01-06T10:07:09;12.23;;;9.67;;
51602;SDS011;37954;51.980;5.850;2024-01-06T10:11:26;13.57;;;9.40;;
51602;SDS011;37954;51.980;5.850;2024-01-06T10:15:38;14.33;;;9.17;;
51602;SDS011;37954;51.980;5.850;2024-01-06T10:19:50;13.20;;;9.30;;
51602;SDS011;37954;51.980;5.850;2024-01-06T10:24:05;15.77;;;10.23;;
51602;SDS011;37954;51.980;5.850;2024-01-06T10:28:23;14.97;;;10.70;;
51602;SDS011;37954;51.980;5.850;2024-01-06T10:32:35;13.03;;;9.60;;
51602;SDS011;37954;51.980;5.850;2024-01-06T10:36:48;12.73;;;8.83;;
51602;SDS011;37954;51.980;5.850;2024-01-06T10:41:02;14.33;;;9.70;;
51602;SDS011;37954;51.980;5.850;2024-01-06T10:45:18;16.40;;;10.47;;
51602;SDS011;37954;51.980;5.850;2024-01-06T10:49:30;13.67;;;9.97;;
51602;SDS011;37954;51.980;5.850;2024-01-06T10:53:42;16.00;;;10.67;;
51602;SDS011;37954;51.980;5.850;2024-01-06T10:57:55;15.60;;;11.53;;
51602;SDS011;37954;51.980;5.850;2024-01-06T11:02:08;18.13;;;11.10;;
51602;SDS011;37954;51.980;5.850;2024-01-06T11:06:23;13.17;;;10.17;;
51602;SDS011;37954;51.980;5.850;2024-01-06T11:10:36;15.50;;;10.13;;
51602;SDS011;37954;51.980;5.850;2024-01-06T11:14:49;16.20;;;10.63;;
51602;SDS011;37954;51.980;5.850;2024-01-06T11:19:00;15.30;;;10.57;;
51602;SDS011;37954;51.980;5.850;2024-01-06T11:23:21;14.60;;;10.00;;
51602;SDS011;37954;51.980;5.850;2024-01-06T11:27:33;11.90;;;9.77;;
51602;SDS011;37954;51.980;5.850;2024-01-06T11:32:16;14.67;;;10.50;;
51602;SDS011;37954;51.980;5.850;2024-01-06T11:36:32;21.33;;;12.87;;
51602;SDS011;37954;51.980;5.850;2024-01-06T11:40:43;12.33;;;10.20;;
51602;SDS011;37954;51.980;5.850;2024-01-06T11:44:55;13.73;;;11.30;;
51602;SDS011;37954;51.980;5.850;2024-01-06T11:49:15;16.33;;;10.13;;
51602;SDS011;37954;51.980;5.850;2024-01-06T11:53:28;15.50;;;10.50;;
51602;SDS011;37954;51.980;5.850;2024-01-06T11:57:39;15.23;;;11.03;;
51602;SDS011;37954;51.980;5.850;2024-01-06T12:01:51;14.83;;;10.23;;
51602;SDS011;37954;51.980;5.850;2024-01-06T12:06:03;18.83;;;10.87;;
51602;SDS011;37954;51.980;5.850;2024-01-06T12:10:15;14.57;;;10.50;;
51602;SDS011;37954;51.980;5.850;2024-01-06T12:14:31;12.83;;;10.40;;
51602;SDS011;37954;51.980;5.850;2024-01-06T12:18:43;14.70;;;10.70;;
51602;SDS011;37954;51.980;5.850;2024-01-06T12:22:55;15.40;;;11.40;;
51602;SDS011;37954;51.980;5.850;2024-01-06T12:27:07;14.60;;;10.33;;
51602;SDS011;37954;51.980;5.850;2024-01-06T12:31:22;16.37;;;11.33;;
51602;SDS011;37954;51.980;5.850;2024-01-06T12:35:37;15.37;;;9.83;;
51602;SDS011;37954;51.980;5.850;2024-01-06T12:40:40;15.63;;;10.50;;
51602;SDS011;37954;51.980;5.850;2024-01-06T12:44:52;14.83;;;10.30;;
51602;SDS011;37954;51.980;5.850;2024-01-06T12:49:04;18.63;;;10.70;;
51602;SDS011;37954;51.980;5.850;2024-01-06T12:53:16;14.50;;;10.87;;
51602;SDS011;37954;51.980;5.850;2024-01-06T12:57:28;14.53;;;11.10;;
51602;SDS011;37954;51.980;5.850;2024-01-06T13:01:41;16.50;;;12.07;;
51602;SDS011;37954;51.980;5.850;2024-01-06T13:05:55;18.50;;;12.37;;
51602;SDS011;37954;51.980;5.850;2024-01-06T13:10:07;17.77;;;12.07;;
51602;SDS011;37954;51.980;5.850;2024-01-06T13:14:19;16.03;;;11.83;;
51602;SDS011;37954;51.980;5.850;2024-01-06T13:18:31;16.73;;;11.97;;
51602;SDS011;37954;51.980;5.850;2024-01-06T13:22:43;16.33;;;12.00;;
51602;SDS011;37954;51.980;5.850;2024-01-06T13:26:55;15.60;;;11.97;;
51602;SDS011;37954;51.980;5.850;2024-01-06T13:31:06;20.23;;;13.30;;
51602;SDS011;37954;51.980;5.850;2024-01-06T13:35:18;16.23;;;11.97;;
51602;SDS011;37954;51.980;5.850;2024-01-06T13:44:09;15.20;;;11.50;;
51602;SDS011;37954;51.980;5.850;2024-01-06T13:48:21;20.80;;;13.40;;
51602;SDS011;37954;51.980;5.850;2024-01-06T13:52:33;18.93;;;13.60;;
51602;SDS011;37954;51.980;5.850;2024-01-06T13:56:44;18.37;;;12.10;;
51602;SDS011;37954;51.980;5.850;2024-01-06T14:00:56;16.67;;;12.00;;
51602;SDS011;37954;51.980;5.850;2024-01-06T14:05:08;17.90;;;11.47;;
51602;SDS011;37954;51.980;5.850;2024-01-06T14:09:19;15.83;;;11.90;;
51602;SDS011;37954;51.980;5.850;2024-01-06T14:13:31;14.00;;;11.40;;
51602;SDS011;37954;51.980;5.850;2024-01-06T14:17:44;18.63;;;13.20;;
51602;SDS011;37954;51.980;5.850;2024-01-06T14:22:01;18.77;;;13.00;;
51602;SDS011;37954;51.980;5.850;2024-01-06T14:26:16;16.40;;;12.00;;
51602;SDS011;37954;51.980;5.850;2024-01-06T14:30:31;16.23;;;12.03;;
51602;SDS011;37954;51.980;5.850;2024-01-06T14:34:43;16.47;;;12.00;;
51602;SDS011;37954;51.980;5.850;2024-01-06T14:38:56;17.37;;;13.33;;
51602;SDS011;37954;51.980;5.850;2024-01-06T14:43:07;17.37;;;12.50;;
51602;SDS011;37954;51.980;5.850;2024-01-06T14:47:19;19.80;;;13.23;;
51602;SDS011;37954;51.980;5.850;2024-01-06T14:51:30;17.70;;;13.93;;
51602;SDS011;37954;51.980;5.850;2024-01-06T14:55:42;17.67;;;12.90;;
51602;SDS011;37954;51.980;5.850;2024-01-06T14:59:54;19.50;;;13.57;;
51602;SDS011;37954;51.980;5.850;2024-01-06T15:04:08;17.60;;;12.53;;
51602;SDS011;37954;51.980;5.850;2024-01-06T15:08:20;15.30;;;11.67;;
51602;SDS011;37954;51.980;5.850;2024-01-06T15:12:31;20.23;;;12.27;;
51602;SDS011;37954;51.980;5.850;2024-01-06T15:16:43;18.17;;;14.20;;
51602;SDS011;37954;51.980;5.850;2024-01-06T15:20:55;20.57;;;14.93;;
51602;SDS011;37954;51.980;5.850;2024-01-06T15:25:07;17.63;;;13.20;;
51602;SDS011;37954;51.980;5.850;2024-01-06T15:29:19;16.70;;;12.57;;
51602;SDS011;37954;51.980;5.850;2024-01-06T15:33:31;15.80;;;11.33;;
51602;SDS011;37954;51.980;5.850;2024-01-06T15:37:43;14.50;;;11.10;;
51602;SDS011;37954;51.980;5.850;2024-01-06T15:41:55;17.67;;;12.47;;
51602;SDS011;37954;51.980;5.850;2024-01-06T15:46:07;17.33;;;12.87;;
51602;SDS011;37954;51.980;5.850;2024-01-06T15:50:19;21.13;;;13.90;;
51602;SDS011;37954;51.980;5.850;2024-01-06T15:54:30;18.60;;;12.80;;
51602;SDS011;37954;51.980;5.850;2024-01-06T15:58:42;19.83;;;13.67;;
51602;SDS011;37954;51.980;5.850;2024-01-06T16:02:54;19.70;;;13.27;;
51602;SDS011;37954;51.980;5.850;2024-01-06T16:07:06;16.07;;;11.80;;
51602;SDS011;37954;51.980;5.850;2024-01-06T16:11:18;14.10;;;10.77;;
51602;SDS011;37954;51.980;5.850;2024-01-06T16:15:30;18.00;;;10.73;;
51602;SDS011;37954;51.980;5.850;2024-01-06T16:19:42;15.43;;;11.03;;
51602;SDS011;37954;51.980;5.850;2024-01-06T16:23:53;28.27;;;19.23;;
51602;SDS011;37954;51.980;5.850;2024-01-06T16:28:05;13.80;;;10.80;;
51602;SDS011;37954;51.980;5.850;2024-01-06T16:32:17;14.03;;;10.60;;
51602;SDS011;37954;51.980;5.850;2024-01-06T16:36:29;15.77;;;11.90;;
51602;SDS011;37954;51.980;5.850;2024-01-06T16:40:41;18.07;;;12.47;;
51602;SDS011;37954;51.980;5.850;2024-01-06T16:44:53;17.27;;;11.10;;
51602;SDS011;37954;51.980;5.850;2024-01-06T16:49:05;18.43;;;12.03;;
51602;SDS011;37954;51.980;5.850;2024-01-06T16:53:17;17.90;;;11.53;;
51602;SDS011;37954;51.980;5.850;2024-01-06T16:57:29;17.43;;;11.20;;
51602;SDS011;37954;51.980;5.850;2024-01-06T17:01:42;18.80;;;11.83;;
51602;SDS011;37954;51.980;5.850;2024-01-06T17:05:54;19.13;;;12.03;;
51602;SDS011;37954;51.980;5.850;2024-01-06T17:10:06;13.77;;;10.60;;
51602;SDS011;37954;51.980;5.850;2024-01-06T17:14:19;15.00;;;11.40;;
51602;SDS011;37954;51.980;5.850;2024-01-06T17:18:30;19.00;;;13.17;;
51602;SDS011;37954;51.980;5.850;2024-01-06T17:22:42;14.33;;;11.10;;
51602;SDS011;37954;51.980;5.850;2024-01-06T17:26:56;20.93;;;13.77;;
51602;SDS011;37954;51.980;5.850;2024-01-06T17:31:07;38.13;;;20.60;;
51602;SDS011;37954;51.980;5.850;2024-01-06T17:35:19;17.07;;;12.07;;
51602;SDS011;37954;51.980;5.850;2024-01-06T17:39:30;16.97;;;10.63;;
51602;SDS011;37954;51.980;5.850;2024-01-06T17:43:42;19.27;;;12.97;;
51602;SDS011;37954;51.980;5.850;2024-01-06T17:47:54;20.57;;;14.47;;
51602;SDS011;37954;51.980;5.850;2024-01-06T17:52:06;16.30;;;12.30;;
51602;SDS011;37954;51.980;5.850;2024-01-06T17:56:17;17.27;;;13.67;;
51602;SDS011;37954;51.980;5.850;2024-01-06T18:00:29;15.93;;;12.07;;
51602;SDS011;37954;51.980;5.850;2024-01-06T18:04:42;19.50;;;12.30;;
51602;SDS011;37954;51.980;5.850;2024-01-06T18:08:54;19.07;;;12.23;;
51602;SDS011;37954;51.980;5.850;2024-01-06T18:13:05;18.33;;;12.73;;
51602;SDS011;37954;51.980;5.850;2024-01-06T18:17:17;16.83;;;13.53;;
51602;SDS011;37954;51.980;5.850;2024-01-06T18:21:29;18.07;;;12.57;;
51602;SDS011;37954;51.980;5.850;2024-01-06T18:25:51;20.83;;;13.17;;
51602;SDS011;37954;51.980;5.850;2024-01-06T18:30:03;19.90;;;15.40;;
51602;SDS011;37954;51.980;5.850;2024-01-06T18:34:16;18.47;;;14.53;;
51602;SDS011;37954;51.980;5.850;2024-01-06T18:38:27;21.10;;;14.83;;
51602;SDS011;37954;51.980;5.850;2024-01-06T18:42:39;22.20;;;16.67;;
51602;SDS011;37954;51.980;5.850;2024-01-06T18:46:51;22.10;;;15.93;;
51602;SDS011;37954;51.980;5.850;2024-01-06T18:51:02;25.97;;;17.77;;
51602;SDS011;37954;51.980;5.850;2024-01-06T18:55:14;18.47;;;13.73;;
51602;SDS011;37954;51.980;5.850;2024-01-06T18:59:26;18.03;;;12.70;;
51602;SDS011;37954;51.980;5.850;2024-01-06T19:03:38;16.57;;;12.27;;
51602;SDS011;37954;51.980;5.850;2024-01-06T19:07:54;19.80;;;14.13;;
51602;SDS011;37954;51.980;5.850;2024-01-06T19:12:06;16.47;;;12.50;;
51602;SDS011;37954;51.980;5.850;2024-01-06T19:16:17;15.90;;;11.30;;
51602;SDS011;37954;51.980;5.850;2024-01-06T19:20:29;12.23;;;9.83;;
51602;SDS011;37954;51.980;5.850;2024-01-06T19:24:40;12.43;;;9.37;;
51602;SDS011;37954;51.980;5.850;2024-01-06T19:28:57;19.00;;;12.47;;
51602;SDS011;37954;51.980;5.850;2024-01-06T19:33:08;21.47;;;15.13;;
51602;SDS011;37954;51.980;5.850;2024-01-06T19:37:20;16.80;;;11.70;;
51602;SDS011;37954;51.980;5.850;2024-01-06T19:41:32;15.17;;;11.23;;
51602;SDS011;37954;51.980;5.850;2024-01-06T19:45:43;16.43;;;11.70;;
51602;SDS011;37954;51.980;5.850;2024-01-06T19:49:55;15.50;;;10.83;;
51602;SDS011;37954;51.980;5.850;2024-01-06T19:54:07;19.30;;;13.03;;
51602;SDS011;37954;51.980;5.850;2024-01-06T19:58:22;17.90;;;13.10;;
51602;SDS011;37954;51.980;5.850;2024-01-06T20:02:45;12.17;;;9.50;;
51602;SDS011;37954;51.980;5.850;2024-01-06T20:06:57;16.67;;;12.07;;
51602;SDS011;37954;51.980;5.850;2024-01-06T20:11:09;20.17;;;13.43;;
51602;SDS011;37954;51.980;5.850;2024-01-06T20:15:21;13.07;;;9.73;;
51602;SDS011;37954;51.980;5.850;2024-01-06T20:19:32;18.67;;;12.63;;
51602;SDS011;37954;51.980;5.850;2024-01-06T20:23:44;13.20;;;9.67;;
51602;SDS011;37954;51.980;5.850;2024-01-06T20:28:00;14.30;;;10.33;;
51602;SDS011;37954;51.980;5.850;2024-01-06T20:32:22;12.80;;;10.33;;
51602;SDS011;37954;51.980;5.850;2024-01-06T20:36:52;15.37;;;10.80;;
51602;SDS011;37954;51.980;5.850;2024-01-06T20:41:04;15.87;;;10.90;;
51602;SDS011;37954;51.980;5.850;2024-01-06T20:45:20;16.23;;;11.57;;
51602;SDS011;37954;51.980;5.850;2024-01-06T20:49:42;15.67;;;11.03;;
51602;SDS011;37954;51.980;5.850;2024-01-06T20:53:57;16.03;;;11.60;;
51602;SDS011;37954;51.980;5.850;2024-01-06T20:58:15;19.33;;;13.33;;
51602;SDS011;37954;51.980;5.850;2024-01-06T21:02:29;15.30;;;11.40;;
51602;SDS011;37954;51.980;5.850;2024-01-06T21:06:54;17.00;;;12.80;;
51602;SDS011;37954;51.980;5.850;2024-01-06T21:11:09;15.27;;;11.87;;
51602;SDS011;37954;51.980;5.850;2024-01-06T21:15:21;16.00;;;12.00;;
51602;SDS011;37954;51.980;5.850;2024-01-06T21:19:36;17.13;;;12.60;;
51602;SDS011;37954;51.980;5.850;2024-01-06T21:23:50;18.03;;;12.00;;
51602;SDS011;37954;51.980;5.850;2024-01-06T21:29:04;18.67;;;12.93;;
51602;SDS011;37954;51.980;5.850;2024-01-06T21:34:07;18.47;;;13.10;;
51602;SDS011;37954;51.980;5.850;2024-01-06T21:43:36;17.87;;;12.87;;
51602;SDS011;37954;51.980;5.850;2024-01-06T21:47:53;16.70;;;11.70;;
51602;SDS011;37954;51.980;5.850;2024-01-06T21:52:54;17.53;;;12.93;;
51602;SDS011;37954;51.980;5.850;2024-01-06T21:57:14;15.87;;;12.43;;
51602;SDS011;37954;51.980;5.850;2024-01-06T22:01:33;14.73;;;11.37;;
51602;SDS011;37954;51.980;5.850;2024-01-06T22:05:46;14.53;;;11.57;;
51602;SDS011;37954;51.980;5.850;2024-01-06T22:10:03;15.67;;;11.20;;
51602;SDS011;37954;51.980;5.850;2024-01-06T22:14:26;16.13;;;11.50;;
51602;SDS011;37954;51.980;5.850;2024-01-06T22:18:38;14.73;;;11.03;;
51602;SDS011;37954;51.980;5.850;2024-01-06T22:22:49;15.10;;;11.33;;
51602;SDS011;37954;51.980;5.850;2024-01-06T22:27:01;16.10;;;11.77;;
51602;SDS011;37954;51.980;5.850;2024-01-06T22:31:13;14.47;;;11.10;;
51602;SDS011;37954;51.980;5.850;2024-01-06T22:35:25;16.30;;;10.50;;
51602;SDS011;37954;51.980;5.850;2024-01-06T22:39:37;16.63;;;11.70;;
51602;SDS011;37954;51.980;5.850;2024-01-06T22:43:50;17.03;;;12.03;;
51602;SDS011;37954;51.980;5.850;2024-01-06T22:48:02;20.80;;;13.47;;
51602;SDS011;37954;51.980;5.850;2024-01-06T22:52:14;17.10;;;12.53;;
51602;SDS011;37954;51.980;5.850;2024-01-06T22:56:26;20.47;;;13.80;;
51602;SDS011;37954;51.980;5.850;2024-01-06T23:00:38;19.77;;;14.00;;
51602;SDS011;37954;51.980;5.850;2024-01-06T23:04:50;21.40;;;13.53;;
51602;SDS011;37954;51.980;5.850;2024-01-06T23:09:03;22.27;;;14.57;;
51602;SDS011;37954;51.980;5.850;2024-01-06T23:13:18;21.70;;;14.83;;
51602;SDS011;37954;51.980;5.850;2024-01-06T23:17:30;21.57;;;14.07;;
51602;SDS011;37954;51.980;5.850;2024-01-06T23:21:42;25.60;;;15.30;;
51602;SDS011;37954;51.980;5.850;2024-01-06T23:25:54;22.80;;;15.47;;
51602;SDS011;37954;51.980;5.850;2024-01-06T23:30:06;21.70;;;14.80;;
51602;SDS011;37954;51.980;5.850;2024-01-06T23:34:19;21.63;;;15.67;;
51602;SDS011;37954;51.980;5.850;2024-01-06T23:38:44;24.33;;;16.07;;
51602;SDS011;37954;51.980;5.850;2024-01-06T23:42:56;24.10;;;16.27;;
51602;SDS011;37954;51.980;5.850;2024-01-06T23:47:08;22.87;;;15.73;;
51602;SDS011;37954;51.980;5.850;2024-01-06T23:51:20;21.00;;;15.17;;
51602;SDS011;37954;51.980;5.850;2024-01-06T23:55:31;26.07;;;16.53;;
51602;SDS011;37954;51.980;5.850;2024-01-06T23:59:43;26.57;;;16.10;;
